Time;durP1;ratioP1;P1;durP2;ratioP2;P2;SDS_P1;SDS_P2;PMS_P1;PMS_P2;Temp;Humidity;BMP_temperature;BMP_pressure;BME280_temperature;BME280_humidity;BME280_pressure;Samples;Min_cycle;Max_cycle;Signal;HPM_P1;HPM_P2
2021/03/22 00:00:50;;;;;;;20.10;13.02;;;4.40;80.40;;;3.43;66.30;94570.31;5052498;28;20180;-84
2021/03/22 00:03:21;;;;;;;19.40;13.02;;;4.40;80.40;;;3.44;66.00;94571.13;5035605;28;20261;-84
2021/03/22 00:05:49;;;;;;;18.52;12.77;;;4.40;80.40;;;3.38;66.38;94569.16;5052857;28;20194;-84
2021/03/22 00:08:17;;;;;;;17.42;12.15;;;4.40;80.40;;;3.38;66.11;94575.13;5052529;28;20195;-84
2021/03/22 00:10:46;;;;;;;18.88;11.90;;;4.40;80.40;;;3.37;66.08;94581.31;5035752;28;20216;-84
2021/03/22 00:13:15;;;;;;;17.58;11.85;;;4.40;80.50;;;3.34;65.89;94574.66;5035967;28;20625;-83
2021/03/22 00:15:44;;;;;;;18.13;11.30;;;4.30;80.40;;;3.35;66.04;94576.25;5035679;28;20289;-84
2021/03/22 00:18:18;;;;;;;13.73;10.25;;;4.30;80.40;;;3.35;65.72;94572.88;5052175;28;20204;-84
2021/03/22 00:20:45;;;;;;;14.68;10.00;;;4.30;80.40;;;3.33;66.13;94570.44;5036149;28;20299;-84
2021/03/22 00:23:13;;;;;;;13.48;9.60;;;4.30;80.40;;;3.31;65.78;94572.38;5052048;28;20685;-84
2021/03/22 00:25:40;;;;;;;16.38;9.05;;;4.30;80.40;;;3.26;66.13;94574.63;5052462;28;20713;-84
2021/03/22 00:28:10;;;;;;;12.73;8.43;;;4.30;80.40;;;3.20;66.11;94564.88;5035664;28;20199;-84
2021/03/22 00:30:41;;;;;;;12.15;8.30;;;4.30;80.40;;;3.19;66.13;94565.84;5035730;28;20648;-84
2021/03/22 00:33:10;;;;;;;12.80;7.97;;;4.20;80.30;;;3.17;65.98;94573.78;5035216;28;20261;-84
2021/03/22 00:35:38;;;;;;;9.70;7.03;;;4.20;80.30;;;3.09;66.02;94571.13;5035745;28;20216;-85
2021/03/22 00:38:06;;;;;;;12.20;7.00;;;4.20;80.30;;;3.11;65.88;94573.56;5034743;28;20556;-84
2021/03/22 00:40:37;;;;;;;11.00;7.63;;;4.20;80.30;;;3.07;65.68;94567.06;5035794;28;20724;-84
2021/03/22 00:43:05;;;;;;;8.48;7.05;;;4.10;80.20;;;3.01;65.89;94565.91;5035772;28;20226;-84
2021/03/22 00:45:45;;;;;;;12.25;6.97;;;4.10;80.20;;;3.00;66.12;94569.44;5051811;28;20218;-83
2021/03/22 00:48:12;;;;;;;10.55;6.78;;;4.10;80.20;;;2.98;66.11;94571.38;5051725;28;20669;-84
2021/03/22 00:50:43;;;;;;;8.48;6.43;;;4.00;80.20;;;2.94;66.19;94576.09;5051668;28;20235;-84
2021/03/22 00:53:14;;;;;;;10.60;6.65;;;4.00;80.20;;;2.92;66.01;94570.22;5035150;28;20199;-84
2021/03/22 00:55:41;;;;;;;8.98;5.88;;;4.00;80.20;;;2.86;65.91;94557.91;5035088;28;20224;-84
2021/03/22 00:58:08;;;;;;;10.50;6.10;;;4.00;80.20;;;2.87;66.20;94565.50;5068411;28;20624;-84
2021/03/22 01:00:44;;;;;;;8.95;6.00;;;3.90;80.10;;;2.83;65.74;94571.13;5051782;28;20574;-84
2021/03/22 01:03:19;;;;;;;7.13;5.35;;;3.90;80.10;;;2.81;65.86;94573.88;5051727;28;20278;-85
2021/03/22 01:05:47;;;;;;;8.55;5.20;;;3.90;80.10;;;2.78;65.86;94581.16;5051746;28;20210;-84
2021/03/22 01:08:15;;;;;;;7.57;5.20;;;3.80;80.10;;;2.71;65.95;94578.34;5051829;28;20215;-84
2021/03/22 01:10:54;;;;;;;7.18;4.70;;;3.80;80.10;;;2.70;65.62;94571.56;5051880;28;20211;-84
2021/03/22 01:13:27;;;;;;;7.25;4.70;;;3.80;80.10;;;2.71;65.74;94580.91;5018764;28;20722;-84
2021/03/22 01:16:15;;;;;;;9.15;4.70;;;3.70;80.00;;;2.61;66.15;94575.03;5071742;28;20322;-84
2021/03/22 01:18:48;;;;;;;6.95;4.10;;;3.70;80.00;;;2.66;65.75;94583.16;5055215;28;20202;-84
2021/03/22 01:21:24;;;;;;;7.47;4.15;;;3.70;80.00;;;2.65;65.96;94581.53;5054832;28;20223;-84
2021/03/22 01:23:52;;;;;;;7.80;4.18;;;3.70;80.00;;;2.62;65.88;94589.63;5055430;28;20653;-84
2021/03/22 01:26:25;;;;;;;4.90;3.63;;;3.70;80.00;;;2.61;65.97;94585.41;5038649;28;20226;-83
2021/03/22 01:28:53;;;;;;;5.15;3.55;;;3.70;80.00;;;2.61;65.88;94587.97;5055263;28;20207;-85
2021/03/22 01:31:21;;;;;;;6.32;3.80;;;3.60;80.00;;;2.58;65.84;94591.69;5054892;28;20226;-83
2021/03/22 01:33:51;;;;;;;8.55;3.78;;;3.60;80.00;;;2.56;65.87;94602.19;5071729;28;20302;-84
2021/03/22 01:36:25;;;;;;;4.40;3.50;;;3.60;80.00;;;2.58;65.85;94601.25;5055287;28;20215;-84
2021/03/22 01:38:57;;;;;;;6.57;3.70;;;3.60;80.00;;;2.54;65.85;94605.91;5038005;28;20282;-83
2021/03/22 01:41:55;;;;;;;5.63;3.42;;;3.60;80.00;;;2.53;65.99;94599.09;5037871;28;20339;-84
2021/03/22 01:44:37;;;;;;;5.20;3.45;;;3.60;80.00;;;2.51;65.66;94594.06;5038421;28;20286;-83
2021/03/22 01:47:08;;;;;;;6.53;3.88;;;3.60;80.00;;;2.46;65.86;94579.94;5037275;28;20221;-85
2021/03/22 01:49:51;;;;;;;5.32;3.25;;;3.50;79.90;;;2.47;65.86;94582.38;5034231;28;20185;-84
2021/03/22 01:52:20;;;;;;;5.18;3.40;;;3.50;79.90;;;2.51;66.10;94588.06;5035245;28;20221;-84
2021/03/22 01:54:50;;;;;;;5.65;3.60;;;3.50;79.90;;;2.49;65.89;94588.22;5002488;28;20286;-84
2021/03/22 01:57:35;;;;;;;6.20;3.55;;;3.50;79.90;;;2.50;65.80;94596.78;5035292;28;20212;-84
2021/03/22 02:00:28;;;;;;;5.15;3.67;;;3.50;79.90;;;2.46;65.96;94593.69;5035198;28;20185;-84
2021/03/22 02:03:05;;;;;;;5.00;3.60;;;3.50;80.00;;;2.42;66.07;94591.53;5018880;28;20229;-84
2021/03/22 02:05:35;;;;;;;5.32;3.80;;;3.50;80.70;;;2.42;65.75;94592.38;5018803;28;20207;-85
2021/03/22 02:08:16;;;;;;;6.72;4.13;;;3.50;79.90;;;2.44;65.75;94598.22;5002113;28;20205;-84
2021/03/22 02:10:44;;;;;;;5.80;3.78;;;3.50;80.00;;;2.44;65.83;94598.22;5035009;28;20181;-84
2021/03/22 02:13:16;;;;;;;4.78;3.60;;;3.50;80.00;;;2.42;65.82;94589.78;5018345;28;20200;-82
2021/03/22 02:15:45;;;;;;;7.20;4.40;;;3.50;79.90;;;2.40;65.56;94587.34;5005268;28;20224;-84
2021/03/22 02:18:33;;;;;;;4.53;3.60;;;3.40;79.80;;;2.38;65.64;94585.84;5054546;28;20184;-84
2021/03/22 02:21:36;;;;;;;5.80;3.60;;;3.40;79.90;;;2.36;65.56;94590.38;5065436;28;20230;-84
2021/03/22 02:25:17;;;;;;;5.03;3.67;;;3.40;79.80;;;2.27;65.69;94591.28;5034716;28;20299;-84
2021/03/22 02:28:50;;;;;;;5.10;4.00;;;3.40;79.80;;;2.16;65.68;94598.31;5036732;28;20224;-84
2021/03/22 02:32:05;;;;;;;7.13;4.20;;;3.40;79.80;;;2.11;65.78;94602.28;5030050;28;20254;-83
2021/03/22 02:34:53;;;;;;;6.43;4.40;;;3.30;79.80;;;2.04;66.25;94602.06;5017730;28;20224;-83
2021/03/22 02:37:40;;;;;;;4.28;3.67;;;3.30;79.80;;;2.03;66.24;94603.84;5001673;28;20311;-84
2021/03/22 02:40:19;;;;;;;6.53;4.20;;;3.20;79.70;;;2.03;65.98;94603.03;5002550;28;20364;-84
2021/03/22 02:42:48;;;;;;;5.50;4.10;;;3.20;79.70;;;2.02;66.14;94606.56;5054006;28;20254;-84
2021/03/22 02:45:50;;;;;;;6.25;4.40;;;3.20;79.80;;;2.03;66.09;94613.38;5032672;28;20201;-85
2021/03/22 02:48:26;;;;;;;5.82;4.15;;;3.10;80.00;;;2.01;66.06;94607.53;5001840;28;20200;-84
2021/03/22 02:51:17;;;;;;;5.95;4.35;;;3.10;79.90;;;1.99;66.49;94618.03;5017713;28;20192;-84
2021/03/22 02:53:56;;;;;;;6.18;4.35;;;3.20;80.20;;;2.03;66.67;94613.38;5003038;28;20331;-84
2021/03/22 02:56:32;;;;;;;6.20;4.13;;;3.10;80.20;;;2.07;66.50;94622.47;5017685;28;20225;-84
2021/03/22 02:59:24;;;;;;;5.65;4.63;;;3.10;80.30;;;2.09;66.63;94625.72;5034138;28;20262;-84
2021/03/22 03:01:58;;;;;;;6.90;4.93;;;3.10;80.40;;;2.10;66.44;94613.59;5036376;28;20224;-84
2021/03/22 03:04:27;;;;;;;6.30;4.93;;;3.10;80.30;;;2.11;66.80;94620.41;5037141;28;20243;-84
2021/03/22 03:07:01;;;;;;;6.43;5.22;;;3.10;80.30;;;2.12;66.55;94624.63;5052151;28;20227;-83
2021/03/22 03:09:36;;;;;;;7.57;5.65;;;3.10;80.30;;;2.14;66.69;94614.94;5037154;28;20253;-85
2021/03/22 03:12:13;;;;;;;7.70;6.00;;;3.20;81.20;;;2.13;66.35;94615.91;5066122;28;20222;-84
2021/03/22 03:14:42;;;;;;;6.28;5.60;;;3.20;80.50;;;2.14;66.24;94618.31;5041789;28;20220;-84
2021/03/22 03:17:09;;;;;;;8.40;5.75;;;3.20;80.50;;;2.13;66.46;94608.94;5041918;28;20302;-84
2021/03/22 03:19:36;;;;;;;9.05;5.75;;;3.20;80.40;;;2.07;66.40;94609.53;5032272;28;20205;-84
2021/03/22 03:22:07;;;;;;;9.40;5.68;;;3.10;80.30;;;2.08;66.30;94611.97;5015254;28;20236;-84
2021/03/22 03:24:34;;;;;;;9.30;5.80;;;3.10;80.10;;;2.04;66.39;94620.19;5015965;28;20207;-83
2021/03/22 03:27:02;;;;;;;8.30;6.78;;;3.10;80.10;;;1.98;66.18;94612.97;5016445;28;20205;-84
2021/03/22 03:29:28;;;;;;;7.10;6.32;;;3.10;80.10;;;1.94;66.26;94612.47;5027210;28;20200;-84
2021/03/22 03:31:56;;;;;;;7.95;6.35;;;3.00;80.10;;;1.92;66.21;94616.97;5034835;28;20216;-85
2021/03/22 03:34:23;;;;;;;7.60;6.13;;;3.00;80.00;;;1.87;66.09;94624.38;5027088;28;20227;-84
2021/03/22 03:36:50;;;;;;;8.20;6.00;;;3.00;80.00;;;1.85;65.42;94626.28;5017239;28;20212;-84
2021/03/22 03:39:17;;;;;;;8.98;6.28;;;3.00;80.00;;;1.82;66.49;94626.56;5042287;28;20204;-85
2021/03/22 03:41:44;;;;;;;7.93;5.70;;;2.90;79.80;;;1.77;66.22;94624.44;5030859;28;20212;-84
2021/03/22 03:44:12;;;;;;;8.38;5.97;;;2.90;79.80;;;1.73;65.99;94623.91;5031516;28;20201;-83
2021/03/22 03:46:40;;;;;;;7.03;5.80;;;2.90;79.80;;;1.73;65.96;94628.25;5033824;28;20212;-84
2021/03/22 03:49:08;;;;;;;9.73;5.93;;;2.90;79.90;;;1.70;66.08;94626.75;5030679;28;20204;-83
2021/03/22 03:51:37;;;;;;;8.07;5.28;;;2.80;79.90;;;1.72;66.18;94631.78;5034497;28;20255;-83
2021/03/22 03:54:06;;;;;;;8.30;6.20;;;2.80;79.90;;;1.68;65.98;94626.09;5037687;28;20221;-84
2021/03/22 03:56:35;;;;;;;8.73;5.97;;;2.80;80.00;;;1.76;66.30;94636.53;5039301;28;20267;-83
2021/03/22 03:59:04;;;;;;;7.43;5.68;;;2.80;80.10;;;1.80;66.17;94626.72;5044934;28;20298;-85
2021/03/22 04:01:32;;;;;;;7.47;5.63;;;2.80;80.10;;;1.82;66.03;94637.72;5016237;28;20377;-85
2021/03/22 04:04:00;;;;;;;8.45;5.90;;;2.90;80.20;;;1.80;66.27;94631.06;4998118;28;20205;-85
2021/03/22 04:06:31;;;;;;;9.45;6.10;;;2.80;80.10;;;1.86;66.02;94635.66;5014305;28;20315;-84
2021/03/22 04:09:06;;;;;;;8.48;5.75;;;2.80;80.10;;;1.85;66.01;94631.44;5014713;28;20200;-84
2021/03/22 04:11:40;;;;;;;8.20;5.60;;;2.90;80.20;;;1.86;65.82;94643.44;5030509;28;20220;-84
2021/03/22 04:14:22;;;;;;;6.68;5.63;;;2.90;80.00;;;1.76;65.67;94633.94;5016638;28;20718;-84
2021/03/22 04:16:50;;;;;;;8.73;5.60;;;2.90;79.90;;;1.74;65.43;94629.88;5007792;28;20231;-84
2021/03/22 04:19:18;;;;;;;7.43;5.75;;;2.90;79.80;;;1.73;65.47;94647.16;5039904;28;20224;-84
2021/03/22 04:21:46;;;;;;;8.23;5.80;;;2.90;79.70;;;1.71;65.63;94635.31;5055914;28;20224;-84
2021/03/22 04:24:15;;;;;;;8.13;5.80;;;2.80;79.50;;;1.66;65.88;94645.28;5016087;28;20204;-84
2021/03/22 04:26:42;;;;;;;7.07;5.75;;;2.80;79.50;;;1.64;65.51;94647.22;5025854;28;20682;-83
2021/03/22 04:29:09;;;;;;;6.40;5.70;;;2.80;79.40;;;1.56;66.03;94642.75;5029316;28;20257;-83
2021/03/22 04:31:37;;;;;;;9.15;5.90;;;2.80;79.40;;;1.46;65.65;94640.19;5040188;28;20216;-83
2021/03/22 04:34:05;;;;;;;8.23;6.47;;;2.70;79.40;;;1.46;65.88;94640.19;5046506;28;20229;-83
2021/03/22 04:36:35;;;;;;;8.20;6.47;;;2.70;79.40;;;1.40;65.95;94653.69;5042885;28;20244;-83
2021/03/22 04:39:07;;;;;;;10.70;6.45;;;2.60;79.40;;;1.34;66.00;94649.91;5043789;28;20200;-83
2021/03/22 04:41:37;;;;;;;9.77;6.00;;;2.60;79.60;;;1.35;66.33;94648.13;5031857;28;20250;-84
2021/03/22 04:44:06;;;;;;;9.07;5.47;;;2.60;79.70;;;1.37;66.04;94665.13;5030073;28;20196;-84
2021/03/22 04:46:38;;;;;;;7.40;5.35;;;2.60;79.90;;;1.42;66.55;94664.72;5013541;28;20232;-83
2021/03/22 04:49:05;;;;;;;6.82;5.18;;;2.50;80.00;;;1.48;66.55;94663.31;5032912;28;20224;-83
2021/03/22 04:51:32;;;;;;;8.13;5.68;;;2.50;80.20;;;1.56;66.40;94666.00;5033376;28;20223;-83
2021/03/22 04:53:59;;;;;;;10.20;5.07;;;2.50;80.30;;;1.62;66.54;94665.44;5033709;28;20727;-84
2021/03/22 04:56:26;;;;;;;9.05;6.97;;;2.60;80.50;;;1.70;66.62;94667.31;5050086;28;20584;-84
2021/03/22 04:58:53;;;;;;;10.05;6.85;;;2.60;80.70;;;1.77;66.63;94658.03;5050823;28;20188;-85
2021/03/22 05:01:20;;;;;;;10.75;6.93;;;2.70;80.80;;;1.82;66.43;94655.81;5034043;28;20243;-85
2021/03/22 05:03:47;;;;;;;9.40;6.90;;;2.70;80.80;;;1.87;66.62;94661.38;5033729;28;20215;-84
2021/03/22 05:06:14;;;;;;;11.23;7.05;;;2.80;80.80;;;1.94;66.40;94666.78;5033451;28;20314;-84
2021/03/22 05:08:41;;;;;;;10.20;7.13;;;2.80;80.80;;;1.96;66.25;94664.88;5033823;28;20634;-84
2021/03/22 05:11:08;;;;;;;10.32;7.18;;;2.90;80.80;;;2.03;66.54;94672.88;5017472;28;20256;-85
2021/03/22 05:13:35;;;;;;;11.70;7.90;;;2.90;80.80;;;2.06;66.62;94686.34;5033075;28;20192;-84
2021/03/22 05:16:03;;;;;;;13.80;8.35;;;2.90;80.90;;;2.09;66.61;94685.22;5027836;28;20302;-85
2021/03/22 05:18:31;;;;;;;10.52;7.53;;;3.00;80.90;;;2.18;66.32;94686.91;5031380;28;20744;-85
2021/03/22 05:21:03;;;;;;;13.68;9.27;;;3.00;80.80;;;2.19;66.57;94677.41;5015056;28;20220;-84
2021/03/22 05:23:32;;;;;;;13.65;9.60;;;3.10;81.00;;;2.21;66.27;94686.66;5016435;28;20203;-85
2021/03/22 05:26:00;;;;;;;15.27;8.98;;;3.10;80.90;;;2.23;66.28;94678.72;5018950;28;20315;-84
2021/03/22 05:28:30;;;;;;;12.32;9.35;;;3.10;80.90;;;2.28;66.06;94673.13;5019362;28;20207;-84
2021/03/22 05:30:58;;;;;;;17.25;9.25;;;3.20;80.90;;;2.33;66.31;94681.25;5035525;28;20600;-85
2021/03/22 05:33:26;;;;;;;17.55;10.70;;;3.20;80.90;;;2.40;66.42;94682.28;5019204;28;20264;-85
2021/03/22 05:35:57;;;;;;;18.92;11.85;;;3.30;80.80;;;2.39;66.30;94688.44;5018575;28;20229;-85
2021/03/22 05:38:24;;;;;;;19.13;11.70;;;3.30;80.80;;;2.40;66.14;94680.53;5019542;28;20207;-84
2021/03/22 05:41:01;;;;;;;19.50;12.57;;;3.30;80.80;;;2.40;66.20;94688.31;5002733;28;20197;-85
2021/03/22 05:43:36;;;;;;;18.10;11.63;;;3.30;80.80;;;2.46;65.81;94702.41;5019143;28;20200;-84
2021/03/22 05:46:43;;;;;;;18.35;11.52;;;3.30;80.80;;;2.46;65.90;94702.41;5042491;28;20224;-84
2021/03/22 05:49:27;;;;;;;22.45;13.18;;;3.40;80.80;;;2.49;65.71;94706.47;5035132;28;20721;-84
2021/03/22 05:52:38;;;;;;;21.92;14.05;;;3.40;80.70;;;2.44;65.92;94693.16;5034821;28;20220;-84
2021/03/22 05:55:43;;;;;;;21.75;13.50;;;3.40;80.60;;;2.45;66.06;94699.97;5018773;28;20768;-85
2021/03/22 05:58:31;;;;;;;23.63;13.27;;;3.40;80.60;;;2.50;65.91;94702.94;5033921;28;20200;-84
2021/03/22 06:01:30;;;;;;;21.30;13.45;;;3.40;80.60;;;2.52;66.11;94709.59;5038188;28;20224;-84
2021/03/22 06:04:05;;;;;;;26.40;14.45;;;3.50;80.70;;;2.56;65.75;94705.75;5038678;28;20200;-85
2021/03/22 06:06:42;;;;;;;23.83;14.30;;;3.50;80.60;;;2.61;65.66;94709.69;5022649;28;20219;-84
2021/03/22 06:09:38;;;;;;;26.85;14.18;;;3.50;80.60;;;2.66;65.58;94726.41;5018607;28;20217;-84
2021/03/22 06:12:34;;;;;;;22.85;13.73;;;3.50;80.70;;;2.65;65.43;94724.78;5034324;28;20303;-83
2021/03/22 06:15:21;;;;;;;22.73;14.75;;;3.50;80.40;;;2.68;65.35;94732.22;5018465;28;20220;-84
2021/03/22 06:18:09;;;;;;;21.70;13.65;;;3.60;80.40;;;2.69;64.99;94733.06;5018660;28;20217;-85
2021/03/22 06:20:39;;;;;;;21.42;13.55;;;3.60;80.20;;;2.70;64.82;94734.69;5033923;28;20196;-84
2021/03/22 06:23:43;;;;;;;22.23;14.35;;;3.60;80.20;;;2.71;65.00;94733.72;5034487;28;20193;-85
2021/03/22 06:26:36;;;;;;;23.27;14.90;;;3.60;80.10;;;2.69;64.92;94740.84;5019933;28;20232;-84
2021/03/22 06:29:19;;;;;;;23.48;14.52;;;3.60;80.00;;;2.67;64.95;94747.94;5025439;28;20250;-86
2021/03/22 06:31:48;;;;;;;22.13;13.77;;;3.60;80.00;;;2.68;64.88;94745.19;5034864;28;20219;-85
2021/03/22 06:34:24;;;;;;;24.05;13.65;;;3.60;80.00;;;2.70;65.12;94740.69;5034138;28;20221;-84
2021/03/22 06:36:51;;;;;;;20.85;13.57;;;3.60;80.00;;;2.78;64.93;94739.94;5034385;28;20258;-85
2021/03/22 06:39:19;;;;;;;19.83;13.85;;;3.70;80.20;;;2.87;64.81;94752.00;5038854;28;20291;-84
2021/03/22 06:41:51;;;;;;;22.65;14.57;;;3.70;80.20;;;2.91;64.62;94754.31;5035765;28;20216;-84
2021/03/22 06:44:32;;;;;;;22.60;13.50;;;3.70;80.00;;;2.88;64.28;94755.41;5017553;28;20665;-84
2021/03/22 06:47:11;;;;;;;25.08;14.38;;;3.80;80.00;;;2.88;63.98;94760.56;5031110;28;20235;-85
2021/03/22 06:49:45;;;;;;;20.45;13.15;;;3.70;79.60;;;2.79;63.89;94745.94;5054939;28;20196;-85
2021/03/22 06:52:23;;;;;;;24.75;13.77;;;3.70;79.50;;;2.81;63.94;94744.81;5053177;28;20681;-82
2021/03/22 06:54:55;;;;;;;21.23;13.55;;;3.80;79.50;;;2.81;63.87;94749.22;5019129;28;20228;-84
2021/03/22 06:57:26;;;;;;;26.08;13.18;;;3.70;79.50;;;2.79;63.90;94749.34;5017275;28;20571;-84
2021/03/22 07:00:12;;;;;;;19.13;12.73;;;3.70;79.40;;;2.76;63.73;94749.66;5019108;28;20689;-83
2021/03/22 07:02:58;;;;;;;22.25;12.82;;;3.70;79.20;;;2.74;63.85;94751.56;5048627;28;20221;-83
2021/03/22 07:05:26;;;;;;;23.27;12.80;;;3.70;79.20;;;2.78;63.78;94760.66;5047074;28;20200;-83
2021/03/22 07:08:11;;;;;;;21.73;12.13;;;3.70;79.30;;;2.80;63.90;94763.13;5043587;28;20262;-83
2021/03/22 07:10:55;;;;;;;19.92;11.85;;;3.70;79.30;;;2.80;63.86;94769.09;5034862;28;20200;-84
2021/03/22 07:13:33;;;;;;;19.30;10.80;;;3.70;79.40;;;2.86;64.11;94775.47;5051489;28;20291;-84
2021/03/22 07:16:20;;;;;;;17.13;9.98;;;3.70;79.40;;;2.94;63.68;94779.91;5055214;28;20321;-84
2021/03/22 07:19:17;;;;;;;19.25;11.45;;;3.80;79.40;;;3.01;63.72;94780.94;5072274;28;20178;-86
2021/03/22 07:21:50;;;;;;;21.10;10.57;;;3.80;79.50;;;3.13;64.12;94777.16;5039945;28;20719;-85
2021/03/22 07:24:23;;;;;;;15.98;10.02;;;3.90;79.80;;;3.27;63.74;94772.41;5017116;28;20200;-84
2021/03/22 07:27:07;;;;;;;19.73;10.52;;;3.90;79.80;;;3.32;63.41;94772.75;5039784;28;20220;-85
2021/03/22 07:30:00;;;;;;;18.60;9.80;;;4.00;79.60;;;3.39;63.06;94784.16;5018085;28;20283;-85
2021/03/22 07:33:11;;;;;;;16.25;9.30;;;4.10;79.50;;;3.40;62.71;94785.78;5028210;28;20224;-85
2021/03/22 07:36:22;;;;;;;16.42;8.98;;;4.10;79.10;;;3.39;62.54;94786.75;5049649;28;20514;-85
2021/03/22 07:39:05;;;;;;;15.43;9.63;;;4.20;78.90;;;3.47;62.63;94788.63;5026787;28;20584;-84
2021/03/22 07:41:47;;;;;;;16.38;9.68;;;4.20;79.00;;;3.61;63.08;94793.22;5036836;28;20212;-85
2021/03/22 07:44:29;;;;;;;15.82;8.73;;;4.30;79.40;;;3.83;63.07;94791.94;5028979;28;20204;-85
2021/03/22 07:47:01;;;;;;;17.88;8.60;;;4.40;79.80;;;4.05;62.82;94789.75;5043528;28;20227;-85
2021/03/22 07:50:11;;;;;;;18.55;8.68;;;4.50;79.60;;;4.13;62.04;94789.00;5051772;28;20234;-85
2021/03/22 07:52:53;;;;;;;15.25;8.95;;;4.70;79.20;;;4.14;61.40;94795.84;5041481;28;20219;-85
2021/03/22 07:55:53;;;;;;;15.85;8.05;;;4.70;78.90;;;4.11;61.48;94796.13;5032229;28;20224;-86
2021/03/22 07:58:45;;;;;;;16.35;8.98;;;4.80;79.30;;;4.07;61.36;94792.22;5032595;28;20211;-85
2021/03/22 08:01:27;;;;;;;16.55;9.00;;;4.90;78.10;;;4.04;61.06;94798.53;5046606;28;20220;-85
2021/03/22 08:04:23;;;;;;;18.75;8.93;;;4.90;78.00;;;4.07;60.98;94800.00;5022818;28;20284;-86
2021/03/22 08:07:32;;;;;;;18.98;8.98;;;4.90;78.00;;;4.03;60.90;94793.50;5030577;28;20299;-85
2021/03/22 08:10:37;;;;;;;15.18;8.20;;;4.90;77.90;;;4.06;61.14;94801.78;5031216;28;20243;-85
2021/03/22 08:13:19;;;;;;;13.90;8.43;;;4.90;77.90;;;4.05;60.92;94805.34;5041950;28;20197;-83
2021/03/22 08:15:56;;;;;;;18.98;9.13;;;4.90;77.90;;;4.11;61.34;94802.16;5003537;28;20310;-84
2021/03/22 08:18:36;;;;;;;16.13;8.73;;;5.00;78.00;;;4.13;60.93;94813.19;5049782;28;20196;-83
2021/03/22 08:21:35;;;;;;;12.05;7.70;;;4.90;77.70;;;4.18;61.06;94817.09;5022142;28;20258;-84
2021/03/22 08:24:24;;;;;;;24.92;8.60;;;4.90;77.50;;;4.30;60.63;94818.47;5035273;28;20673;-84
2021/03/22 08:27:01;;;;;;;13.90;8.98;;;5.00;77.50;;;4.44;60.66;94828.28;5050308;28;20282;-83
2021/03/22 08:29:34;;;;;;;19.27;8.15;;;5.10;77.80;;;4.55;59.08;94826.34;5050573;28;20291;-83
2021/03/22 08:32:21;;;;;;;15.45;7.68;;;5.10;77.20;;;4.57;58.51;94825.22;5049154;28;20212;-84
2021/03/22 08:35:21;;;;;;;17.55;8.20;;;5.10;77.00;;;4.50;57.89;94824.22;5032085;28;20769;-85
2021/03/22 08:38:30;;;;;;;15.43;8.38;;;5.20;76.50;;;4.51;58.22;94830.25;5015639;28;20217;-84
2021/03/22 08:40:59;;;;;;;17.17;8.32;;;5.20;76.30;;;4.51;58.21;94838.84;5011866;28;20216;-83
2021/03/22 08:43:49;;;;;;;15.32;7.93;;;5.20;76.30;;;4.47;57.88;94829.75;5016074;28;20208;-83
2021/03/22 08:46:41;;;;;;;13.20;7.38;;;5.30;76.10;;;4.49;58.69;94822.59;5020289;28;20238;-83
2021/03/22 08:49:27;;;;;;;15.50;7.97;;;5.20;76.30;;;4.61;58.94;94825.72;5032370;28;20288;-83
2021/03/22 08:51:58;;;;;;;14.30;7.63;;;5.30;76.50;;;4.66;58.03;94823.47;5033199;28;20622;-83
2021/03/22 08:54:33;;;;;;;17.42;8.48;;;5.30;76.30;;;4.69;57.92;94832.72;5027587;28;20694;-86
2021/03/22 08:57:04;;;;;;;13.25;8.15;;;5.30;75.90;;;4.68;57.85;94836.31;5016379;28;20307;-84
2021/03/22 08:59:31;;;;;;;16.05;7.97;;;5.40;76.00;;;4.70;57.34;94837.78;5035927;28;20192;-86
2021/03/22 09:02:24;;;;;;;13.82;7.45;;;5.40;75.90;;;4.70;57.21;94830.00;5019134;28;20220;-85
2021/03/22 09:04:54;;;;;;;14.02;7.85;;;5.40;75.70;;;4.87;57.80;94837.81;5044267;28;20200;-86
2021/03/22 09:07:26;;;;;;;12.32;7.38;;;5.50;75.90;;;5.02;57.88;94841.44;5044019;28;20256;-85
2021/03/22 09:10:21;;;;;;;18.13;8.15;;;5.50;75.90;;;5.17;57.84;94830.41;5011872;28;20331;-85
2021/03/22 09:12:50;;;;;;;17.02;8.05;;;5.60;76.00;;;5.31;56.72;94840.19;5040932;28;20226;-85
2021/03/22 09:15:39;;;;;;;13.80;7.10;;;5.70;75.80;;;5.45;57.40;94836.94;5041205;28;20222;-85
2021/03/22 09:18:15;;;;;;;14.07;6.80;;;5.80;75.90;;;5.63;56.99;94833.38;5027780;28;20200;-85
2021/03/22 09:20:48;;;;;;;10.70;7.05;;;6.00;75.90;;;5.86;56.76;94838.72;5041840;28;20262;-85
2021/03/22 09:23:30;;;;;;;9.80;6.50;;;6.10;75.70;;;6.03;56.01;94847.38;5030599;28;20239;-86
2021/03/22 09:26:16;;;;;;;13.60;6.78;;;6.30;75.50;;;6.08;55.25;94828.66;5057066;28;20230;-86
2021/03/22 09:28:48;;;;;;;11.55;6.18;;;6.40;75.10;;;6.16;55.00;94841.63;5030624;28;20192;-86
2021/03/22 09:31:15;;;;;;;10.88;5.85;;;6.50;74.60;;;6.13;53.67;94841.16;5016962;28;20217;-85
2021/03/22 09:34:04;;;;;;;12.43;5.90;;;6.60;74.30;;;5.98;52.42;94847.03;5055830;28;20204;-86
2021/03/22 09:36:46;;;;;;;9.52;5.57;;;6.60;72.80;;;5.79;52.30;94837.75;5053008;28;20596;-86
2021/03/22 09:39:19;;;;;;;11.48;5.93;;;6.50;72.50;;;5.65;51.56;94844.44;5026768;28;20209;-86
2021/03/22 09:42:09;;;;;;;11.10;5.68;;;6.50;72.00;;;5.47;51.79;94855.00;5038194;28;20250;-86
2021/03/22 09:44:58;;;;;;;11.63;5.85;;;6.40;71.60;;;5.31;51.46;94834.16;5036463;28;20219;-86
2021/03/22 09:47:34;;;;;;;10.60;5.80;;;6.30;71.20;;;5.35;52.50;94830.28;5052774;28;20216;-87
2021/03/22 09:50:24;;;;;;;9.77;5.10;;;6.20;71.70;;;5.50;51.50;94836.44;5010477;28;20208;-87
2021/03/22 09:52:51;;;;;;;10.23;5.47;;;6.20;71.50;;;5.59;50.51;94838.09;5035421;28;20434;-86
2021/03/22 09:55:26;;;;;;;10.70;5.10;;;6.20;71.20;;;5.69;51.74;94843.13;5034311;28;20207;-86
2021/03/22 09:57:55;;;;;;;10.25;6.03;;;6.20;71.80;;;5.68;51.81;94831.09;5047555;28;20220;-87
2021/03/22 10:00:35;;;;;;;10.57;5.22;;;6.20;71.80;;;5.74;52.46;94851.25;5033659;28;20205;-86
2021/03/22 10:03:27;;;;;;;10.73;5.07;;;6.30;72.10;;;5.62;51.06;94860.38;5049609;28;20217;-86
2021/03/22 10:05:58;;;;;;;8.63;5.25;;;6.30;71.00;;;5.47;51.09;94860.19;5039566;28;20201;-86
2021/03/22 10:08:33;;;;;;;9.43;5.13;;;6.30;71.10;;;5.42;51.05;94847.69;5039336;28;20220;-85
2021/03/22 10:11:19;;;;;;;13.15;5.78;;;6.20;70.40;;;5.53;51.58;94864.75;5045299;28;20208;-86
2021/03/22 10:13:48;;;;;;;8.73;5.05;;;6.20;71.20;;;5.67;50.44;94852.09;5040042;28;20238;-86
2021/03/22 10:16:34;;;;;;;8.95;5.03;;;6.20;70.70;;;5.92;51.31;94852.88;5052108;28;20231;-85
2021/03/22 10:19:26;;;;;;;7.70;4.60;;;6.30;71.40;;;6.15;50.73;94854.81;5042401;28;20639;-86
2021/03/22 10:21:57;;;;;;;9.60;4.90;;;6.40;71.30;;;6.26;48.70;94862.28;5033696;28;20315;-85
2021/03/22 10:25:11;;;;;;;10.77;5.35;;;6.50;70.50;;;6.20;48.95;94853.38;5049797;28;20201;-85
2021/03/22 10:27:42;;;;;;;7.95;5.00;;;6.60;69.80;;;6.13;48.47;94859.38;5026796;28;20226;-85
2021/03/22 10:30:21;;;;;;;9.30;4.35;;;6.70;69.40;;;6.09;49.55;94849.31;5043401;28;20258;-87
2021/03/22 10:33:03;;;;;;;8.02;4.30;;;6.70;69.90;;;6.16;49.64;94857.25;5041604;28;20318;-86
2021/03/22 10:35:45;;;;;;;9.55;5.20;;;6.70;70.00;;;6.24;49.18;94854.66;5029314;28;20239;-83
2021/03/22 10:38:31;;;;;;;6.70;4.35;;;6.80;69.70;;;6.35;50.03;94855.28;5042082;28;20319;-85
2021/03/22 10:41:00;;;;;;;6.35;4.65;;;6.80;70.30;;;6.46;49.40;94856.69;5025484;28;20270;-85
2021/03/22 10:43:30;;;;;;;14.68;5.40;;;6.90;70.10;;;6.48;47.96;94858.19;5039241;28;20188;-84
2021/03/22 10:46:21;;;;;;;9.38;5.03;;;7.00;69.30;;;6.52;49.50;94869.09;5051655;28;20227;-85
2021/03/22 10:49:13;;;;;;;10.35;5.13;;;7.00;69.70;;;6.49;48.67;94859.78;5025131;28;20185;-85
2021/03/22 10:51:47;;;;;;;8.38;4.80;;;7.10;69.40;;;6.47;49.46;94860.94;5031098;28;20223;-84
2021/03/22 10:54:19;;;;;;;8.50;5.43;;;7.10;69.60;;;6.50;49.00;94868.44;5023634;28;20196;-84
2021/03/22 10:56:49;;;;;;;8.27;5.13;;;7.10;69.60;;;6.69;49.98;94867.22;5018061;28;20626;-85
2021/03/22 10:59:25;;;;;;;9.02;5.32;;;7.20;70.30;;;6.84;49.30;94849.88;5034020;28;20201;-84
2021/03/22 11:01:55;;;;;;;10.18;5.80;;;7.20;69.60;;;6.90;48.40;94861.44;5034599;28;20263;-85
2021/03/22 11:04:29;;;;;;;11.40;4.80;;;7.30;69.00;;;6.99;48.78;94854.38;5033743;28;20229;-84
2021/03/22 11:06:57;;;;;;;9.90;4.80;;;7.40;69.40;;;7.01;46.57;94863.66;5034091;28;20212;-85
2021/03/22 11:09:31;;;;;;;7.10;4.25;;;7.40;68.50;;;7.00;47.29;94862.03;5037475;28;20192;-85
2021/03/22 11:11:59;;;;;;;7.60;4.72;;;7.50;68.50;;;6.92;45.12;94863.88;5042634;28;20243;-83